Time;durP1;ratioP1;P1;durP2;ratioP2;P2;SDS_P1;SDS_P2;PMS_P1;PMS_P2;Temp;Humidity;BMP_temperature;BMP_pressure;BME280_temperature;BME280_humidity;BME280_pressure;Samples;Min_cycle;Max_cycle;Signal;HPM_P1;HPM_P2
2023/02/25 00:01:39;;;;;;;14.37;2.07;;;;;;;3.27;100.00;148270.78;5042040;28;20029;-72
2023/02/25 00:04:04;;;;;;;27.10;2.83;;;;;;;3.25;100.00;148266.94;5047822;28;20112;-71
2023/02/25 00:06:30;;;;;;;18.07;2.67;;;;;;;3.25;100.00;148266.94;5026818;28;20017;-73
2023/02/25 00:08:55;;;;;;;20.27;2.40;;;;;;;3.24;100.00;148264.38;5022364;28;20032;-73
2023/02/25 00:11:23;;;;;;;16.97;3.07;;;;;;;3.19;100.00;148251.53;5030606;28;20055;-73
2023/02/25 00:13:49;;;;;;;21.93;3.07;;;;;;;3.14;100.00;148238.63;5030993;28;20029;-72
2023/02/25 00:16:15;;;;;;;19.10;2.50;;;;;;;3.12;100.00;148233.47;5038529;28;20041;-73
2023/02/25 00:18:43;;;;;;;17.37;2.87;;;;;;;3.21;100.00;148257.94;5031275;28;20026;-73
2023/02/25 00:21:08;;;;;;;15.33;2.07;;;;;;;3.23;100.00;148261.81;5030588;28;20048;-73
2023/02/25 00:23:34;;;;;;;13.43;2.47;;;;;;;3.29;100.00;148277.28;5029411;28;20025;-73
2023/02/25 00:26:02;;;;;;;22.27;2.73;;;;;;;3.23;100.00;148261.81;5044026;28;20033;-73
2023/02/25 00:28:27;;;;;;;12.27;1.70;;;;;;;3.19;100.00;148251.53;5030769;28;20087;-73
2023/02/25 00:30:53;;;;;;;17.20;2.37;;;;;;;3.13;100.00;148236.06;5030671;28;20065;-73
2023/02/25 00:33:19;;;;;;;16.07;2.10;;;;;;;3.21;100.00;148257.94;5030992;28;20100;-73
2023/02/25 00:35:44;;;;;;;18.03;2.37;;;;;;;3.13;100.00;148236.06;5032532;28;20029;-73
2023/02/25 00:38:10;;;;;;;20.80;2.40;;;;;;;3.10;100.00;148229.63;5054450;28;20021;-73
2023/02/25 00:40:39;;;;;;;16.00;2.57;;;;;;;3.01;100.00;148205.19;5041529;28;20381;-73
2023/02/25 00:43:06;;;;;;;20.73;4.00;;;;;;;3.00;100.00;148202.59;5034294;28;20477;-73
2023/02/25 00:45:31;;;;;;;19.43;2.70;;;;;;;3.10;100.00;148229.63;5034399;28;20057;-73
2023/02/25 00:47:57;;;;;;;18.93;2.90;;;;;;;3.27;100.00;148272.13;5033817;28;20580;-71
2023/02/25 00:50:23;;;;;;;20.90;2.50;;;;;;;3.39;100.00;148303.00;5034512;28;20022;-72
2023/02/25 00:52:48;;;;;;;21.40;2.90;;;;;;;3.46;100.00;148319.72;5034179;28;20041;-72
2023/02/25 00:55:14;;;;;;;20.40;2.40;;;;;;;3.50;100.00;148331.28;5034342;28;20040;-73
2023/02/25 00:57:41;;;;;;;20.27;2.13;;;;;;;3.57;100.00;148346.75;5049628;28;20453;-72
2023/02/25 01:00:09;;;;;;;17.50;2.17;;;;;;;3.63;100.00;148363.47;5034265;28;20501;-72
2023/02/25 01:02:35;;;;;;;10.77;2.07;;;;;;;3.67;100.00;148372.50;5033827;28;20045;-72
2023/02/25 01:05:00;;;;;;;19.03;3.07;;;;;;;3.79;100.00;148403.41;5033500;28;20401;-73
2023/02/25 01:07:26;;;;;;;9.67;1.87;;;;;;;3.76;100.00;148396.97;5036432;28;20028;-73
2023/02/25 01:09:54;;;;;;;14.27;1.80;;;;;;;3.77;100.00;148398.28;5034191;28;20068;-74
2023/02/25 01:12:20;;;;;;;11.47;1.80;;;;;;;3.77;100.00;148398.28;5033357;28;20041;-74
2023/02/25 01:14:45;;;;;;;15.70;1.93;;;;;;;3.79;100.00;148403.41;5037483;28;20100;-74
2023/02/25 01:17:11;;;;;;;10.50;2.23;;;;;;;3.78;100.00;148402.13;5038705;28;20034;-74
2023/02/25 01:19:36;;;;;;;8.73;2.00;;;;;;;3.76;100.00;148395.69;5033921;28;20024;-74
2023/02/25 01:22:01;;;;;;;15.23;2.00;;;;;;;3.77;100.00;148398.28;5033650;28;20025;-74
2023/02/25 01:24:29;;;;;;;14.17;2.73;;;;;;;3.78;100.00;148402.13;5033471;28;20061;-74
2023/02/25 01:26:57;;;;;;;11.57;1.90;;;;;;;3.77;100.00;148398.28;5041993;28;20572;-74
2023/02/25 01:29:26;;;;;;;11.70;1.70;;;;;;;3.69;100.00;148377.66;5033461;28;20079;-74
2023/02/25 01:31:57;;;;;;;13.73;2.30;;;;;;;3.67;100.00;148372.50;5032305;28;20072;-74
2023/02/25 01:34:23;;;;;;;10.07;1.80;;;;;;;3.61;100.00;148357.03;5026535;28;20037;-74
2023/02/25 01:36:49;;;;;;;10.20;1.73;;;;;;;3.68;100.00;148375.09;5026851;28;20029;-74
2023/02/25 01:39:16;;;;;;;8.47;1.60;;;;;;;3.72;100.00;148385.38;5026200;28;20040;-74
2023/02/25 01:41:45;;;;;;;12.63;1.77;;;;;;;3.78;100.00;148402.13;5037666;28;20029;-74
2023/02/25 01:44:15;;;;;;;11.87;2.30;;;;;;;3.85;100.00;148417.56;5031064;28;20033;-74
2023/02/25 01:46:42;;;;;;;9.23;1.40;;;;;;;3.87;100.00;148422.69;5026970;28;20033;-74
2023/02/25 01:49:16;;;;;;;9.50;1.30;;;;;;;3.90;100.00;148431.75;5025782;28;20033;-74
2023/02/25 01:51:44;;;;;;;7.90;1.47;;;;;;;3.89;100.00;148427.88;5029301;28;20021;-74
2023/02/25 01:54:12;;;;;;;15.03;1.50;;;;;;;3.88;100.00;148426.59;5028381;28;20040;-74
2023/02/25 01:56:41;;;;;;;9.20;1.67;;;;;;;3.83;100.00;148414.97;5033311;28;20029;-74
2023/02/25 01:59:07;;;;;;;7.17;1.27;;;;;;;3.85;100.00;148418.84;5032604;28;20044;-74
2023/02/25 02:01:37;;;;;;;13.63;1.60;;;;;;;3.88;100.00;148426.59;5048828;23;20041;-67
2023/02/25 02:04:04;;;;;;;8.80;1.60;;;;;;;3.88;100.00;148425.25;5051245;28;20444;-67
2023/02/25 02:06:37;;;;;;;6.57;1.50;;;;;;;3.88;100.00;148426.59;5046321;28;20261;-67
2023/02/25 02:09:06;;;;;;;12.67;1.53;;;;;;;3.92;100.00;148435.59;5047102;28;20029;-67
2023/02/25 02:11:32;;;;;;;9.23;1.47;;;;;;;3.89;100.00;148429.16;5045173;28;20028;-66
2023/02/25 02:14:00;;;;;;;9.70;1.47;;;;;;;3.91;100.00;148434.31;5048864;28;20029;-66
2023/02/25 02:16:33;;;;;;;7.07;1.30;;;;;;;3.90;100.00;148431.75;5051897;28;20509;-67
2023/02/25 02:19:19;;;;;;;11.47;1.63;;;;;;;3.92;100.00;148436.88;5043944;28;20037;-67
2023/02/25 02:21:53;;;;;;;10.70;1.30;;;;;;;3.92;100.00;148436.88;5049605;28;20522;-66
2023/02/25 02:24:28;;;;;;;7.73;1.27;;;;;;;3.91;100.00;148433.03;5043945;28;20032;-67
2023/02/25 02:27:06;;;;;;;10.63;1.43;;;;;;;3.87;100.00;148423.97;5048945;28;20033;-66
2023/02/25 02:29:50;;;;;;;9.67;1.30;;;;;;;3.85;100.00;148418.84;5052026;28;20037;-67
2023/02/25 02:32:41;;;;;;;12.47;1.57;;;;;;;3.86;100.00;148421.41;5041379;28;20397;-67
2023/02/25 02:35:16;;;;;;;6.13;1.38;;;;;;;3.85;100.00;148418.84;5049398;28;20036;-66
2023/02/25 02:37:57;;;;;;;10.57;1.50;;;;;;;3.86;100.00;148421.41;5033725;28;20025;-67
2023/02/25 02:40:35;;;;;;;8.63;1.70;;;;;;;3.90;100.00;148430.44;5042802;28;20044;-66
2023/02/25 02:43:23;;;;;;;8.07;1.40;;;;;;;3.99;100.00;148454.88;5051433;28;20032;-66
2023/02/25 02:46:06;;;;;;;8.83;1.30;;;;;;;4.02;100.00;148461.34;5051794;28;20388;-66
2023/02/25 02:48:38;;;;;;;5.77;1.40;;;;;;;4.02;100.00;148462.66;5046044;28;20377;-66
2023/02/25 02:51:09;;;;;;;12.63;1.60;;;;;;;4.05;100.00;148470.34;5050102;28;20124;-66
2023/02/25 02:53:46;;;;;;;11.00;1.23;;;;;;;3.99;100.00;148454.88;5048632;28;20656;-66
2023/02/25 02:56:15;;;;;;;7.97;1.37;;;;;;;3.99;100.00;148454.88;5044808;28;20109;-66
2023/02/25 02:58:47;;;;;;;8.70;1.30;;;;;;;3.97;100.00;148449.72;5048457;28;20025;-66
2023/02/25 03:01:12;;;;;;;;;;;;;;;4.01;100.00;148458.78;5041853;28;20041;-66
2023/02/25 03:03:42;;;;;;;6.40;1.40;;;;;;;3.94;100.00;148440.75;5029939;28;19917;-66
2023/02/25 03:06:20;;;;;;;9.53;1.20;;;;;;;3.96;100.00;148447.16;5022005;28;20025;-66
2023/02/25 03:08:52;;;;;;;22.20;2.90;;;;;;;3.96;100.00;148447.16;5029103;28;20026;-66
2023/02/25 03:11:18;;;;;;;12.40;1.97;;;;;;;3.99;100.00;148453.59;5029154;28;20036;-67
2023/02/25 03:13:43;;;;;;;9.80;1.70;;;;;;;4.00;100.00;148457.50;5031435;28;20021;-66
2023/02/25 03:16:18;;;;;;;9.97;1.50;;;;;;;4.06;100.00;148472.94;5031901;28;20400;-65
2023/02/25 03:18:51;;;;;;;11.27;1.87;;;;;;;4.02;100.00;148462.66;5030875;28;20028;-67
2023/02/25 03:21:20;;;;;;;9.67;1.60;;;;;;;3.99;100.00;148454.88;5031911;28;20049;-67
2023/02/25 03:23:47;;;;;;;13.07;1.90;;;;;;;3.94;100.00;148442.03;5030809;28;20029;-67
2023/02/25 03:26:18;;;;;;;9.60;1.70;;;;;;;3.97;100.00;148448.44;5031654;28;20515;-67
2023/02/25 03:28:45;;;;;;;14.05;1.70;;;;;;;3.90;100.00;148431.75;5030630;28;20040;-67
2023/02/25 03:31:20;;;;;;;6.57;1.40;;;;;;;3.86;100.00;148420.13;5029580;28;20037;-68
2023/02/25 03:34:09;;;;;;;7.67;1.80;;;;;;;3.78;100.00;148402.13;5030777;28;20469;-68
2023/02/25 03:36:41;;;;;;;6.67;1.70;;;;;;;3.72;100.00;148385.38;5029363;28;20112;-68
2023/02/25 03:39:20;;;;;;;8.07;1.60;;;;;;;3.72;100.00;148386.66;5028762;28;20021;-66
2023/02/25 03:41:50;;;;;;;12.27;1.83;;;;;;;3.76;100.00;148396.97;5028997;28;20057;-66
2023/02/25 03:44:20;;;;;;;4.80;1.10;;;;;;;3.48;100.00;148324.84;5029581;28;20022;-65
2023/02/25 03:46:46;;;;;;;6.20;1.30;;;;;;;3.51;100.00;148333.91;5030247;28;20040;-65
2023/02/25 03:49:20;;;;;;;8.30;1.77;;;;;;;3.48;100.00;148324.84;5030763;28;20026;-66
2023/02/25 03:51:47;;;;;;;5.77;1.70;;;;;;;3.53;100.00;148337.75;5030035;28;20032;-65
2023/02/25 03:54:15;;;;;;;10.33;1.80;;;;;;;3.51;100.00;148333.91;5030972;28;20026;-66
2023/02/25 03:56:46;;;;;;;4.60;1.53;;;;;;;3.40;100.00;148305.59;5025286;28;20026;-66
2023/02/25 03:59:12;;;;;;;9.27;1.83;;;;;;;3.32;100.00;148284.97;5030291;28;20032;-65
2023/02/25 04:01:39;;;;;;;6.07;1.63;;;;;;;3.25;100.00;148266.94;5028703;28;20047;-66
2023/02/25 04:04:05;;;;;;;6.77;2.17;;;;;;;3.25;100.00;148266.94;5026612;28;20022;-67
2023/02/25 04:06:30;;;;;;;7.43;2.00;;;;;;;3.21;100.00;148257.94;5029191;28;20047;-66
2023/02/25 04:08:57;;;;;;;10.33;1.80;;;;;;;3.16;100.00;148243.81;5030370;28;20021;-66
2023/02/25 04:11:22;;;;;;;10.00;2.20;;;;;;;3.14;100.00;148239.91;5031061;28;20030;-66
2023/02/25 04:13:48;;;;;;;10.43;2.03;;;;;;;3.06;100.00;148218.06;5033186;28;20040;-66
2023/02/25 04:16:13;;;;;;;9.37;2.67;;;;;;;3.04;100.00;148214.22;5033599;28;20021;-66
2023/02/25 04:18:39;;;;;;;10.17;2.10;;;;;;;3.10;100.00;148228.34;5032086;28;20572;-66
2023/02/25 04:21:06;;;;;;;12.97;2.60;;;;;;;3.19;100.00;148251.53;5030005;28;20038;-65
2023/02/25 04:23:32;;;;;;;8.20;2.40;;;;;;;3.19;100.00;148252.81;5034034;28;20033;-66
2023/02/25 04:25:57;;;;;;;9.50;2.20;;;;;;;3.29;100.00;148275.97;5034026;28;20033;-66
2023/02/25 04:28:23;;;;;;;11.43;2.80;;;;;;;3.37;100.00;148296.53;5031733;28;20029;-66
2023/02/25 04:30:48;;;;;;;10.97;2.67;;;;;;;3.38;100.00;148300.41;5030925;28;20053;-66
2023/02/25 04:33:13;;;;;;;12.03;2.47;;;;;;;3.39;100.00;148303.00;5034368;28;20030;-65
2023/02/25 04:35:39;;;;;;;9.70;2.40;;;;;;;3.44;100.00;148315.88;5033756;28;20083;-66
2023/02/25 04:38:07;;;;;;;13.47;2.40;;;;;;;3.48;100.00;148326.16;5031612;28;20056;-66
2023/02/25 04:40:33;;;;;;;9.10;1.80;;;;;;;3.49;100.00;148328.72;5029901;28;20500;-66
2023/02/25 04:42:58;;;;;;;11.23;1.70;;;;;;;3.47;100.00;148323.56;5032627;28;20107;-66
2023/02/25 04:45:24;;;;;;;13.43;1.83;;;;;;;3.52;100.00;148336.47;5030022;28;20153;-66
2023/02/25 04:47:51;;;;;;;13.43;2.00;;;;;;;3.53;100.00;148339.03;5033289;28;20025;-66
2023/02/25 04:50:17;;;;;;;15.20;2.20;;;;;;;3.53;100.00;148339.03;5031923;28;20039;-66
2023/02/25 04:52:43;;;;;;;10.67;2.10;;;;;;;3.55;100.00;148341.63;5032374;28;20021;-66
2023/02/25 04:55:09;;;;;;;10.37;2.20;;;;;;;3.51;100.00;148333.91;5033042;28;20021;-66
2023/02/25 04:57:41;;;;;;;13.23;1.80;;;;;;;3.49;100.00;148328.72;5033697;28;20381;-66
2023/02/25 05:00:08;;;;;;;6.90;1.70;;;;;;;3.43;100.00;148313.28;5031719;28;20030;-67
2023/02/25 05:02:33;;;;;;;10.57;2.20;;;;;;;3.30;100.00;148278.56;5030969;28;20099;-66
2023/02/25 05:04:59;;;;;;;13.60;2.13;;;;;;;3.28;100.00;148273.41;5032904;28;20116;-66
2023/02/25 05:07:24;;;;;;;9.30;1.57;;;;;;;3.27;100.00;148272.13;5029409;28;20092;-66
2023/02/25 05:09:50;;;;;;;11.77;1.90;;;;;;;3.30;100.00;148279.84;5032454;28;20032;-66
2023/02/25 05:12:16;;;;;;;8.20;1.90;;;;;;;3.34;100.00;148288.81;5031878;28;20026;-66
2023/02/25 05:14:41;;;;;;;10.80;1.77;;;;;;;3.29;100.00;148275.97;5029229;28;20018;-67
2023/02/25 05:17:07;;;;;;;11.07;2.30;;;;;;;3.10;100.00;148229.63;5033567;28;20420;-66
2023/02/25 05:19:33;;;;;;;12.20;2.03;;;;;;;3.12;100.00;148233.47;5033150;28;20116;-66
2023/02/25 05:21:58;;;;;;;11.97;2.00;;;;;;;3.09;100.00;148225.78;5032901;28;20033;-66
2023/02/25 05:24:23;;;;;;;9.97;2.03;;;;;;;3.04;100.00;148212.94;5033094;28;20116;-67
2023/02/25 05:26:50;;;;;;;13.47;2.83;;;;;;;2.94;100.00;148189.75;5033288;28;20029;-67
2023/02/25 05:29:16;;;;;;;8.17;1.70;;;;;;;2.99;100.00;148200.03;5032628;28;20453;-66
2023/02/25 05:31:41;;;;;;;21.40;3.03;;;;;;;2.88;100.00;148173.00;5031192;28;20021;-67
2023/02/25 05:34:06;;;;;;;10.43;1.60;;;;;;;2.84;100.00;148164.03;5032207;28;20416;-66
2023/02/25 05:36:32;;;;;;;12.83;2.10;;;;;;;2.78;100.00;148147.28;5032444;28;20026;-66
2023/02/25 05:39:01;;;;;;;10.87;1.60;;;;;;;2.73;100.00;148135.72;5031138;28;20017;-67
2023/02/25 05:41:26;;;;;;;11.27;2.10;;;;;;;2.72;100.00;148133.16;5032316;28;20587;-66
2023/02/25 05:43:52;;;;;;;12.07;1.90;;;;;;;2.62;100.00;148107.44;5030602;28;20108;-66
2023/02/25 05:46:17;;;;;;;14.60;1.80;;;;;;;2.60;100.00;148102.28;5032170;28;20516;-67
2023/02/25 05:48:47;;;;;;;16.80;2.00;;;;;;;2.58;100.00;148097.16;5031842;28;20063;-66
2023/02/25 05:51:15;;;;;;;15.20;2.20;;;;;;;2.60;100.00;148102.28;5033853;28;20029;-67
2023/02/25 05:53:43;;;;;;;13.33;2.27;;;;;;;2.55;100.00;148089.44;5031096;28;20100;-66
2023/02/25 05:56:13;;;;;;;14.00;2.50;;;;;;;2.51;100.00;148080.41;5030351;28;20029;-67
2023/02/25 05:58:39;;;;;;;16.20;2.30;;;;;;;2.61;100.00;148106.13;5036099;28;20017;-66
2023/02/25 06:01:10;;;;;;;21.43;2.47;;;;;;;2.64;100.00;148113.84;5031900;28;20036;-67
2023/02/25 06:03:36;;;;;;;13.98;2.22;;;;;;;2.62;100.00;148107.44;5028951;28;20377;-67
2023/02/25 06:06:02;;;;;;;9.93;2.10;;;;;;;2.71;100.00;148130.59;5032134;28;20461;-66
2023/02/25 06:08:27;;;;;;;12.87;1.90;;;;;;;2.72;100.00;148133.16;5030976;28;20067;-66
2023/02/25 06:10:52;;;;;;;9.30;2.10;;;;;;;2.78;100.00;148148.56;5031728;28;20033;-66
2023/02/25 06:13:18;;;;;;;10.33;1.90;;;;;;;2.86;100.00;148169.16;5030208;28;20029;-66
2023/02/25 06:15:43;;;;;;;19.77;3.10;;;;;;;2.85;100.00;148166.59;5029985;28;20515;-67
2023/02/25 06:18:09;;;;;;;10.83;1.80;;;;;;;2.88;100.00;148173.00;5031653;28;20033;-67
2023/02/25 06:20:34;;;;;;;9.57;2.07;;;;;;;2.86;100.00;148167.88;5030232;28;20108;-67
2023/02/25 06:23:01;;;;;;;14.43;2.30;;;;;;;2.85;100.00;148165.31;5030333;28;20057;-66
2023/02/25 06:25:31;;;;;;;9.30;1.80;;;;;;;2.86;100.00;148169.16;5030205;28;20049;-66
2023/02/25 06:28:00;;;;;;;9.67;2.10;;;;;;;2.88;100.00;148174.31;5031816;28;20036;-67
2023/02/25 06:30:27;;;;;;;8.43;2.10;;;;;;;2.88;100.00;148174.31;5029314;28;20041;-67
2023/02/25 06:32:53;;;;;;;10.10;1.60;;;;;;;2.87;100.00;148170.44;5030092;28;20080;-67
2023/02/25 06:35:22;;;;;;;10.30;1.53;;;;;;;2.91;100.00;148182.06;5027715;28;21381;-67
2023/02/25 06:37:57;;;;;;;16.17;1.57;;;;;;;2.91;100.00;148182.06;5031758;28;20037;-66
2023/02/25 06:40:22;;;;;;;11.13;1.63;;;;;;;2.94;100.00;148189.75;5031014;28;20385;-66
2023/02/25 06:42:48;;;;;;;11.07;2.30;;;;;;;3.01;100.00;148206.47;5028654;28;20029;-66
2023/02/25 06:45:13;;;;;;;7.50;1.83;;;;;;;2.99;100.00;148200.03;5024053;28;20513;-66
2023/02/25 06:47:39;;;;;;;10.80;1.20;;;;;;;3.11;100.00;148232.19;5029698;28;20099;-66
2023/02/25 06:50:06;;;;;;;10.40;1.43;;;;;;;3.17;100.00;148246.38;5030835;28;20021;-66
2023/02/25 06:52:31;;;;;;;12.37;2.27;;;;;;;3.16;100.00;148245.09;5030757;28;20059;-66
2023/02/25 06:54:57;;;;;;;14.17;2.63;;;;;;;3.19;100.00;148252.81;5030587;28;20029;-67
2023/02/25 06:57:22;;;;;;;10.07;2.07;;;;;;;3.25;100.00;148266.94;5030088;28;20056;-66
2023/02/25 06:59:48;;;;;;;8.40;1.30;;;;;;;3.49;100.00;148327.44;5030837;28;20033;-66
2023/02/25 07:02:14;;;;;;;11.23;1.70;;;;;;;3.44;100.00;148315.88;5035128;28;20030;-66
2023/02/25 07:04:40;;;;;;;7.33;1.50;;;;;;;3.33;100.00;148287.53;5030825;28;20105;-66
2023/02/25 07:07:06;;;;;;;11.93;1.60;;;;;;;3.19;100.00;148251.53;5030435;28;20025;-66
2023/02/25 07:09:31;;;;;;;9.60;1.70;;;;;;;3.06;100.00;148219.34;5028831;28;20045;-66
2023/02/25 07:11:57;;;;;;;6.77;1.70;;;;;;;2.92;100.00;148184.63;5029786;28;20021;-65
2023/02/25 07:14:23;;;;;;;8.67;1.73;;;;;;;2.84;100.00;148162.75;5022588;28;20262;-66
2023/02/25 07:16:49;;;;;;;8.23;1.50;;;;;;;2.81;100.00;148155.03;5031329;28;20034;-66
2023/02/25 07:19:15;;;;;;;7.93;1.40;;;;;;;2.82;100.00;148158.88;5031411;28;20029;-65
2023/02/25 07:21:41;;;;;;;7.87;1.70;;;;;;;2.88;100.00;148174.31;5028388;28;20029;-66
2023/02/25 07:24:06;;;;;;;7.90;1.53;;;;;;;3.23;100.00;148261.81;5031628;28;20029;-65
2023/02/25 07:26:32;;;;;;;10.77;1.70;;;;;;;3.62;100.00;148360.91;5031500;28;20025;-65
2023/02/25 07:28:58;;;;;;;10.77;1.50;;;;;;;3.50;100.00;148331.28;5030124;28;20021;-66
2023/02/25 07:31:24;;;;;;;12.93;1.70;;;;;;;3.36;100.00;148293.97;5028634;28;20040;-65
2023/02/25 07:33:51;;;;;;;9.23;1.90;;;;;;;3.39;100.00;148301.69;5030687;28;20038;-66
2023/02/25 07:36:17;;;;;;;13.37;1.70;;;;;;;3.21;100.00;148256.66;5028880;28;20017;-65
2023/02/25 07:38:43;;;;;;;8.23;1.40;;;;;;;3.06;100.00;148218.06;5029592;28;20040;-65
2023/02/25 07:41:11;;;;;;;9.60;1.60;;;;;;;2.96;100.00;148193.63;5029313;28;20025;-66
2023/02/25 07:43:38;;;;;;;4.70;1.30;;;;;;;2.83;100.00;148161.47;5027272;28;20104;-65
2023/02/25 07:46:05;;;;;;;10.17;1.50;;;;;;;2.81;100.00;148156.31;5032443;28;20025;-66
2023/02/25 07:48:31;;;;;;;7.70;1.50;;;;;;;2.84;100.00;148164.03;5033402;28;20025;-65
2023/02/25 07:51:07;;;;;;;11.43;2.20;;;;;;;2.85;100.00;148166.59;5034327;28;20117;-65
2023/02/25 07:53:32;;;;;;;9.33;1.60;;;;;;;3.88;100.00;148425.25;5030394;28;20028;-65
2023/02/25 07:55:58;;;;;;;6.03;1.13;;;;;;;5.10;100.00;148735.78;5032142;28;20029;-65
2023/02/25 07:58:24;;;;;;;9.30;1.70;;;;;;;5.81;100.00;148916.28;5032683;28;20025;-65
2023/02/25 08:00:49;;;;;;;7.00;1.23;;;;;;;6.44;100.00;149076.34;5033825;28;20124;-64
2023/02/25 08:03:14;;;;;;;5.27;1.30;;;;;;;6.72;100.00;149146.03;5027623;28;20167;-62
2023/02/25 08:05:40;;;;;;;8.83;1.17;;;;;;;6.59;100.00;149112.47;5034272;28;20040;-62
2023/02/25 08:08:05;;;;;;;12.20;1.50;;;;;;;5.01;100.00;148712.56;5025124;28;20473;-63
2023/02/25 08:10:31;;;;;;;8.13;1.30;;;;;;;4.39;100.00;148555.38;5030737;28;20025;-62
2023/02/25 08:12:56;;;;;;;6.27;1.50;;;;;;;4.11;100.00;148485.78;5033247;28;20026;-62
2023/02/25 08:15:22;;;;;;;9.40;2.27;;;;;;;5.35;100.00;148797.69;5032882;28;20163;-62
2023/02/25 08:17:50;;;;;;;9.13;1.47;;;;;;;6.83;100.00;149174.44;5033810;28;20491;-61
2023/02/25 08:20:16;;;;;;;8.30;1.40;;;;;;;7.41;100.00;149320.38;5033863;28;20033;-62
2023/02/25 08:22:42;;;;;;;6.00;1.13;;;;;;;6.22;100.00;149019.56;5033022;28;20037;-62
2023/02/25 08:25:08;;;;;;;7.77;1.57;;;;;;;4.99;100.00;148707.44;5034259;28;20107;-62
2023/02/25 08:27:34;;;;;;;10.33;1.80;;;;;;;4.57;100.00;148601.72;5033631;28;20048;-62
2023/02/25 08:30:00;;;;;;;8.77;1.27;;;;;;;4.47;100.00;148575.97;5031632;28;20049;-62
2023/02/25 08:32:26;;;;;;;11.27;1.60;;;;;;;4.44;100.00;148568.25;5033072;28;20566;-62
2023/02/25 08:34:52;;;;;;;9.20;1.47;;;;;;;4.53;100.00;148590.16;5034052;28;20029;-62
2023/02/25 08:37:18;;;;;;;7.53;1.40;;;;;;;4.40;100.00;148557.94;5033498;28;20056;-62
2023/02/25 08:39:43;;;;;;;10.40;1.60;;;;;;;4.51;100.00;148586.28;5032545;28;20033;-63
2023/02/25 08:42:10;;;;;;;7.97;1.87;;;;;;;4.46;100.00;148573.38;5030375;28;20033;-62
2023/02/25 08:44:36;;;;;;;8.50;1.30;;;;;;;4.28;100.00;148527.03;5033337;28;20025;-62
2023/02/25 08:47:03;;;;;;;8.03;1.60;;;;;;;4.10;100.00;148483.22;5028495;28;20523;-62
2023/02/25 08:49:29;;;;;;;9.10;1.33;;;;;;;4.09;100.00;148480.66;5024119;28;20049;-62
2023/02/25 08:51:55;;;;;;;6.90;1.40;;;;;;;4.04;100.00;148467.78;5033074;28;20424;-62
2023/02/25 08:54:21;;;;;;;11.27;2.03;;;;;;;4.09;100.00;148479.34;5025052;28;20029;-62
2023/02/25 08:56:49;;;;;;;9.20;1.33;;;;;;;3.98;100.00;148451.03;5021089;28;20056;-63
2023/02/25 08:59:15;;;;;;;6.07;1.20;;;;;;;4.02;100.00;148462.66;5024861;28;20201;-62
2023/02/25 09:01:43;;;;;;;7.60;1.37;;;;;;;4.25;100.00;148520.59;5030002;28;20131;-64
2023/02/25 09:04:15;;;;;;;7.67;1.37;;;;;;;4.44;100.00;148568.25;5030502;28;20021;-62
2023/02/25 09:06:42;;;;;;;7.30;1.20;;;;;;;4.63;100.00;148617.22;5032218;28;20112;-62
2023/02/25 09:09:07;;;;;;;8.87;1.20;;;;;;;4.48;100.00;148578.53;5030950;28;20057;-63
2023/02/25 09:11:33;;;;;;;6.13;1.10;;;;;;;4.56;100.00;148599.16;5032558;28;20079;-62
2023/02/25 09:13:58;;;;;;;6.70;1.10;;;;;;;4.76;100.00;148648.16;5031949;28;20608;-63
2023/02/25 09:16:27;;;;;;;5.67;1.33;;;;;;;4.93;100.00;148693.22;5030103;28;20049;-64
2023/02/25 09:18:52;;;;;;;7.20;1.10;;;;;;;5.03;100.00;148717.72;5033441;28;20033;-63
2023/02/25 09:21:18;;;;;;;4.87;1.00;;;;;;;4.78;100.00;148653.28;5032138;28;20034;-63
2023/02/25 09:23:45;;;;;;;5.83;1.13;;;;;;;4.89;100.00;148682.94;5028623;28;20072;-63
2023/02/25 09:26:11;;;;;;;4.47;0.93;;;;;;;4.88;100.00;148679.06;5025887;28;20443;-63
2023/02/25 09:28:37;;;;;;;5.53;0.90;;;;;;;4.77;100.00;148650.72;5025172;28;20350;-63
2023/02/25 09:31:03;;;;;;;4.47;1.30;;;;;;;5.38;100.00;148806.69;5024455;28;20036;-63
2023/02/25 09:33:31;;;;;;;5.07;0.90;;;;;;;5.77;100.00;148905.97;5029744;28;20029;-63
2023/02/25 09:36:07;;;;;;;5.53;1.10;;;;;;;5.94;100.00;148947.31;5030090;28;20079;-63
2023/02/25 09:38:33;;;;;;;5.03;1.00;;;;;;;5.57;100.00;148854.38;5020590;28;20116;-64
2023/02/25 09:40:59;;;;;;;5.17;0.97;;;;;;;5.42;100.00;148815.69;5025325;28;20025;-63
2023/02/25 09:43:29;;;;;;;2.83;0.90;;;;;;;4.91;100.00;148688.06;5026529;28;20036;-63
2023/02/25 09:46:09;;;;;;;6.87;1.00;;;;;;;4.94;100.00;148694.50;5031436;28;20385;-63
2023/02/25 09:48:39;;;;;;;5.37;0.90;;;;;;;4.64;100.00;148619.78;5031013;28;20099;-64
2023/02/25 09:51:22;;;;;;;7.73;1.00;;;;;;;4.62;100.00;148614.66;5027743;28;20034;-63
2023/02/25 09:54:07;;;;;;;5.23;0.80;;;;;;;4.63;100.00;148615.94;5023257;28;20538;-63
2023/02/25 09:56:34;;;;;;;3.60;0.77;;;;;;;4.73;100.00;148640.44;5020142;28;20529;-63
2023/02/25 09:59:02;;;;;;;4.33;1.00;;;;;;;4.82;100.00;148663.59;5019595;28;20053;-63
2023/02/25 10:01:35;;;;;;;7.57;1.27;;;;;;;4.59;100.00;148606.88;5023412;28;20025;-64
2023/02/25 10:04:04;;;;;;;4.67;0.80;;;;;;;4.38;100.00;143850.97;5023792;28;20029;-64
2023/02/25 10:06:46;;;;;;;7.63;1.20;;;;;;;4.54;100.00;144562.00;5023693;28;20060;-63
2023/02/25 10:09:24;;;;;;;;;;;;;;;4.50;100.00;144216.44;5023661;28;20037;-63
2023/02/25 10:12:08;;;;;;;8.70;3.30;;;;;;;4.82;100.00;142951.34;5029545;28;19923;-64
2023/02/25 10:14:48;;;;;;;5.63;1.07;;;;;;;4.99;100.00;140309.00;5019242;28;20029;-63
2023/02/25 10:17:51;;;;;;;5.03;1.17;;;;;;;5.00;100.00;137630.06;5030703;28;20036;-63
2023/02/25 10:20:25;;;;;;;4.00;0.90;;;;;;;4.23;100.00;129422.63;5032512;28;20115;-63
2023/02/25 10:23:16;;;;;;;3.87;0.90;;;;;;;4.18;100.00;127742.00;5023529;28;20487;-63
2023/02/25 10:25:54;;;;;;;4.13;1.05;;;;;;;4.39;100.00;127454.66;5026499;28;20040;-63
2023/02/25 10:28:21;;;;;;;4.97;1.03;;;;;;;4.43;100.00;125794.28;5030933;28;20040;-63
2023/02/25 10:31:00;;;;;;;7.27;0.90;;;;;;;4.31;100.00;124101.09;5028135;28;20411;-63
2023/02/25 10:33:27;;;;;;;4.40;0.90;;;;;;;4.46;100.00;125799.72;5030381;28;20110;-64
2023/02/25 10:36:26;;;;;;;7.03;1.20;;;;;;;4.33;100.00;123103.81;5031361;28;20418;-63
2023/02/25 10:38:52;;;;;;;3.57;1.00;;;;;;;4.43;100.00;125460.53;5029116;28;20496;-62
2023/02/25 10:41:25;;;;;;;5.37;1.33;;;;;;;4.51;100.00;127481.19;5031208;28;20492;-63
2023/02/25 10:43:52;;;;;;;6.43;0.97;;;;;;;4.24;100.00;125419.16;5017566;28;20706;-63
2023/02/25 10:46:39;;;;;;;6.70;1.00;;;;;;;4.41;100.00;124788.81;5026372;28;20033;-63
2023/02/25 10:49:24;;;;;;;3.53;0.63;;;;;;;4.71;100.00;124186.19;5022343;28;20028;-63
2023/02/25 10:52:01;;;;;;;2.03;0.80;;;;;;;4.70;100.00;120848.03;5025578;28;20030;-63
2023/02/25 10:54:29;;;;;;;4.07;1.10;;;;;;;4.56;100.00;118485.91;5030812;28;20083;-63
2023/02/25 10:56:57;;;;;;;5.17;1.00;;;;;;;4.43;100.00;116794.22;5029815;28;20040;-63
2023/02/25 10:59:27;;;;;;;6.17;0.97;;;;;;;4.15;100.00;115406.69;5027865;28;20104;-63
2023/02/25 11:01:54;;;;;;;4.77;1.00;;;;;;;4.18;100.00;115413.69;5026522;28;20037;-63
2023/02/25 11:04:24;;;;;;;5.00;0.90;;;;;;;4.23;100.00;113759.75;5029573;28;20486;-63
2023/02/25 11:06:49;;;;;;;5.03;1.10;;;;;;;4.19;100.00;111758.47;5020548;28;20627;-63
2023/02/25 11:09:17;;;;;;;5.30;1.00;;;;;;;4.16;100.00;110090.66;5030701;28;20032;-64
2023/02/25 11:12:23;;;;;;;4.80;0.90;;;;;;;3.95;100.00;105075.75;5042358;28;20410;-63
2023/02/25 11:14:48;;;;;;;8.03;1.10;;;;;;;3.81;100.00;102068.28;5026007;28;20512;-62
2023/02/25 11:17:21;;;;;;;2.83;0.80;;;;;;;3.88;100.00;103073.59;5030525;28;20033;-63
2023/02/25 11:19:57;;;;;;;3.33;0.97;;;;;;;4.25;100.00;104465.44;5026880;28;20045;-63
2023/02/25 11:22:38;;;;;;;2.53;0.90;;;;;;;4.43;100.00;101181.41;5019660;28;20025;-63
2023/02/25 11:25:14;;;;;;;8.18;0.90;;;;;;;4.77;100.00;99915.06;5030890;28;20040;-63
2023/02/25 11:27:42;;;;;;;2.67;0.80;;;;;;;4.99;100.00;90019.09;5030062;28;20085;-63
2023/02/25 11:30:24;;;;;;;6.03;1.00;;;;;;;5.16;100.00;89052.84;5029108;28;20388;-63